TimeEDT,TemperatureF,Dew PointF,Humidity,Sea Level PressureIn,VisibilityMPH,Wind Direction,Wind SpeedMPH,Gust SpeedMPH,PrecipitationIn,Events,Conditions,WindDirDegrees,DateUTC
12:15 AM,67.8,63.5,86,30.28,10.0,Calm,Calm,-,N/A,,Clear,0,2013-07-15 04:15:00
12:35 AM,67.6,63.0,85,30.27,10.0,Calm,Calm,-,N/A,,Clear,0,2013-07-15 04:35:00
12:55 AM,67.8,63.5,86,30.27,10.0,Calm,Calm,-,N/A,,Clear,0,2013-07-15 04:55:00
1:15 AM,67.1,63.3,88,30.27,10.0,Calm,Calm,-,N/A,,Clear,0,2013-07-15 05:15:00
1:35 AM,66.7,62.8,87,30.27,10.0,Calm,Calm,-,N/A,,Scattered Clouds,0,2013-07-15 05:35:00
1:55 AM,66.7,63.3,89,30.27,10.0,Calm,Calm,-,N/A,,Clear,0,2013-07-15 05:55:00
2:15 AM,66.0,62.8,89,30.27,7.0,Calm,Calm,-,N/A,,Clear,0,2013-07-15 06:15:00
2:35 AM,66.7,63.7,90,30.27,7.0,Calm,Calm,-,N/A,,Scattered Clouds,0,2013-07-15 06:35:00
2:55 AM,65.7,62.4,89,30.27,7.0,Calm,Calm,-,N/A,,Scattered Clouds,0,2013-07-15 06:55:00
3:15 AM,65.1,62.1,90,30.27,4.0,Calm,Calm,-,N/A,,Clear,0,2013-07-15 07:15:00
3:35 AM,64.0,61.2,90,30.27,4.0,Calm,Calm,-,N/A,,Clear,0,2013-07-15 07:35:00
3:55 AM,64.9,62.1,90,30.27,7.0,Calm,Calm,-,N/A,,Clear,0,2013-07-15 07:55:00
4:15 AM,64.4,61.7,91,30.27,0.2,Calm,Calm,-,N/A,Fog,Fog,0,2013-07-15 08:15:00
4:35 AM,63.9,61.0,90,30.26,0.2,Calm,Calm,-,N/A,Fog,Fog,0,2013-07-15 08:35:00
4:55 AM,63.5,60.8,91,30.26,0.2,Calm,Calm,-,N/A,Fog,Fog,0,2013-07-15 08:55:00
5:15 AM,63.5,60.8,91,30.26,0.2,Calm,Calm,-,N/A,Fog,Fog,0,2013-07-15 09:15:00
5:35 AM,63.5,60.8,91,30.27,0.2,Calm,Calm,-,N/A,Fog,Fog,0,2013-07-15 09:35:00
5:55 AM,63.5,60.8,91,30.27,0.2,Calm,Calm,-,N/A,Fog,Fog,0,2013-07-15 09:55:00
6:15 AM,63.5,60.8,91,30.27,0.2,Calm,Calm,-,N/A,Fog,Fog,0,2013-07-15 10:15:00
6:35 AM,63.5,60.8,91,30.28,0.2,Calm,Calm,-,N/A,Fog,Fog,0,2013-07-15 10:35:00
6:55 AM,64.4,61.7,91,30.28,0.2,Calm,Calm,-,N/A,Fog,Fog,0,2013-07-15 10:55:00
7:15 AM,65.3,62.6,91,30.28,0.2,Calm,Calm,-,N/A,Fog,Fog,0,2013-07-15 11:15:00
7:35 AM,66.2,63.5,91,30.28,0.5,Calm,Calm,-,N/A,Fog,Fog,0,2013-07-15 11:35:00
7:55 AM,67.5,64.8,91,30.28,1.0,Calm,Calm,-,N/A,,Overcast,0,2013-07-15 11:55:00
8:15 AM,68.7,66.0,91,30.28,10.0,Calm,Calm,-,N/A,,Scattered Clouds,0,2013-07-15 12:15:00
8:35 AM,70.3,67.5,91,30.28,10.0,Calm,Calm,-,N/A,,Clear,0,2013-07-15 12:35:00
8:55 AM,72.5,68.7,88,30.27,10.0,Calm,Calm,-,N/A,,Clear,0,2013-07-15 12:55:00
9:15 AM,75.6,67.5,76,30.27,10.0,Calm,Calm,-,N/A,,Clear,0,2013-07-15 13:15:00
9:35 AM,77.9,67.8,71,30.26,10.0,ESE,3.5,-,N/A,,Clear,120,2013-07-15 13:35:00
9:55 AM,78.8,68.0,69,30.26,10.0,ESE,3.5,-,N/A,,Clear,110,2013-07-15 13:55:00
10:15 AM,78.3,67.6,70,30.25,10.0,Calm,Calm,-,N/A,,Scattered Clouds,0,2013-07-15 14:15:00
10:35 AM,80.2,67.5,65,30.25,10.0,Calm,Calm,-,N/A,,Scattered Clouds,0,2013-07-15 14:35:00
10:55 AM,80.8,67.5,64,30.25,10.0,Calm,Calm,-,N/A,,Mostly Cloudy,0,2013-07-15 14:55:00
11:15 AM,84.0,63.5,50,30.24,10.0,NW,6.9,-,N/A,,Scattered Clouds,320,2013-07-15 15:15:00
11:35 AM,83.7,64.4,52,30.24,10.0,West,8.1,-,N/A,,Scattered Clouds,260,2013-07-15 15:35:00
11:55 AM,84.9,62.8,47,30.24,10.0,NNW,5.8,-,N/A,,Scattered Clouds,330,2013-07-15 15:55:00
12:15 PM,85.8,62.8,46,30.23,10.0,WNW,5.8,-,N/A,,Scattered Clouds,300,2013-07-15 16:15:00
12:35 PM,86.0,61.5,44,30.23,10.0,NW,10.4,-,N/A,,Scattered Clouds,310,2013-07-15 16:35:00
12:55 PM,86.5,61.9,43,30.23,10.0,WNW,6.9,-,N/A,,Mostly Cloudy,300,2013-07-15 16:55:00
1:15 PM,86.5,61.2,42,30.22,10.0,WNW,9.2,-,N/A,,Scattered Clouds,290,2013-07-15 17:15:00
1:35 PM,84.6,61.9,46,30.22,10.0,NW,6.9,-,N/A,,Scattered Clouds,310,2013-07-15 17:35:00
1:55 PM,85.1,61.3,45,30.22,10.0,NW,9.2,-,N/A,,Scattered Clouds,310,2013-07-15 17:55:00
2:15 PM,85.8,60.6,43,30.21,10.0,WNW,11.5,-,N/A,,Scattered Clouds,290,2013-07-15 18:15:00
2:35 PM,86.9,60.1,40,30.21,10.0,WNW,8.1,-,N/A,,Scattered Clouds,300,2013-07-15 18:35:00
2:55 PM,87.1,61.9,43,30.21,10.0,WNW,12.7,17.3,N/A,,Scattered Clouds,300,2013-07-15 18:55:00
3:15 PM,87.3,60.6,41,30.21,10.0,WNW,8.1,-,N/A,,Scattered Clouds,290,2013-07-15 19:15:00
3:35 PM,86.9,58.1,38,30.20,10.0,West,12.7,17.3,N/A,,Scattered Clouds,270,2013-07-15 19:35:00
3:55 PM,86.5,58.8,39,30.20,10.0,NW,8.1,-,N/A,,Clear,310,2013-07-15 19:55:00
4:15 PM,86.4,59.2,40,30.20,10.0,WNW,9.2,-,N/A,,Scattered Clouds,290,2013-07-15 20:15:00
4:35 PM,84.9,58.5,41,30.20,10.0,WNW,9.2,-,N/A,,Scattered Clouds,290,2013-07-15 20:35:00
4:55 PM,86.2,59.2,40,30.20,10.0,WNW,9.2,16.1,N/A,,Scattered Clouds,290,2013-07-15 20:55:00
5:15 PM,82.8,61.0,48,30.19,10.0,WNW,5.8,-,N/A,,Scattered Clouds,300,2013-07-15 21:15:00
5:35 PM,85.1,58.3,40,30.19,10.0,NW,9.2,-,N/A,,Scattered Clouds,310,2013-07-15 21:35:00
5:55 PM,84.4,53.6,35,30.19,10.0,NW,8.1,-,N/A,,Scattered Clouds,310,2013-07-15 21:55:00
6:15 PM,84.2,54.7,36,30.20,10.0,WNW,6.9,-,N/A,,Clear,300,2013-07-15 22:15:00
6:35 PM,83.3,55.8,39,30.20,10.0,WNW,5.8,-,N/A,,Clear,300,2013-07-15 22:35:00
6:55 PM,82.6,56.3,40,30.20,10.0,NW,6.9,-,N/A,,Clear,310,2013-07-15 22:55:00
7:15 PM,81.7,57.9,44,30.20,10.0,WNW,4.6,-,N/A,,Clear,300,2013-07-15 23:15:00
7:35 PM,80.8,59.9,49,30.20,10.0,NNW,3.5,-,N/A,,Clear,330,2013-07-15 23:35:00
7:55 PM,79.2,59.7,51,30.20,10.0,NW,3.5,-,N/A,,Clear,320,2013-07-15 23:55:00
8:15 PM,77.7,59.2,53,30.20,10.0,NW,5.8,-,N/A,,Clear,310,2013-07-16 00:15:00
8:35 PM,77.4,59.2,53,30.20,10.0,NW,5.8,-,N/A,,Clear,310,2013-07-16 00:35:00
8:55 PM,75.7,59.2,56,30.21,10.0,West,3.5,-,N/A,,Clear,270,2013-07-16 00:55:00
9:15 PM,74.3,60.6,62,30.22,10.0,Calm,Calm,-,N/A,,Clear,0,2013-07-16 01:15:00
9:35 PM,73.2,60.8,65,30.22,10.0,Calm,Calm,-,N/A,,Clear,0,2013-07-16 01:35:00
9:55 PM,72.7,60.8,66,30.22,10.0,Calm,Calm,-,N/A,,Clear,0,2013-07-16 01:55:00
10:15 PM,71.4,61.0,70,30.22,10.0,Calm,Calm,-,N/A,,Clear,0,2013-07-16 02:15:00
10:35 PM,71.4,60.8,69,30.22,10.0,Calm,Calm,-,N/A,,Clear,0,2013-07-16 02:35:00
10:55 PM,70.9,60.8,70,30.22,10.0,Calm,Calm,-,N/A,,Clear,0,2013-07-16 02:55:00
11:15 PM,71.1,61.0,70,30.22,10.0,Calm,Calm,-,N/A,,Clear,0,2013-07-16 03:15:00
11:35 PM,70.3,61.2,73,30.22,10.0,Calm,Calm,-,N/A,,Clear,0,2013-07-16 03:35:00
11:55 PM,69.6,61.0,74,30.22,10.0,Calm,Calm,-,N/A,,Clear,0,2013-07-16 03:55:00